Suula — OJKZ — position and weather

sailwx.info

Track history (hours):
 
Tides and Currents Weather Stations Pressure Air Temp Water Temp Dewpoint Dewpoint Depression Visibility Wind Speed Wind Dir Waves Ship Positions

Suula

Last reported at 2015-Aug-30 00:09 UTC. Time now 2015-Sep-02 00:19 UTC.
Position N 59°33' E 021°12'.

Length 140 m; draft 6.5 m.

Type: Tanker. MMSI: 230956996.

Date/timePositionNaut miles runAvg speedWind from/ knotsBaromVisibWave heightAir tempDewpointWater temp
2015-Aug-30 00:09N 59°33' E 021°12'813.3
2015-Aug-29 23:33N 59°32' E 021°28'1313.2
2015-Aug-29 22:33N 59°31' E 021°54'4013.4
2015-Aug-29 19:33N 59°38' E 023°12'1313.4
2015-Aug-29 18:33N 59°41' E 023°38'1413.4
2015-Aug-29 17:32N 59°45' E 024°04'11 0.3
2015-Aug-28 02:33N 59°38' E 023°47'1414.0
2015-Aug-28 01:32N 59°34' E 023°21'18214.1
2015-Aug-27 12:33N 57°55' E 018°25'1414.3
2015-Aug-27 11:33N 57°48' E 018°02'1414.1
2015-Aug-27 10:33N 57°41' E 017°39'1413.9
2015-Aug-27 09:34N 57°34' E 017°16'1413.7
2015-Aug-27 08:34N 57°25' E 016°57'1414.0
2015-Aug-27 07:34N 57°13' E 016°44'2 2.1
2015-Aug-27 06:32N 57°11' E 016°42'0 0.0
2015-Aug-27 05:32N 57°11' E 016°42'0 0.0
2015-Aug-27 04:32N 57°11' E 016°42'0 0.0
2015-Aug-27 03:32N 57°11' E 016°42'0 0.0
2015-Aug-27 02:32N 57°11' E 016°42'0 0.0
2015-Aug-27 01:32N 57°11' E 016°42'0 0.0
2015-Aug-27 00:32N 57°11' E 016°43'0 0.0
2015-Aug-26 23:32N 57°11' E 016°43'0 0.0
2015-Aug-26 22:32N 57°11' E 016°43'0 0.0
2015-Aug-26 21:32N 57°11' E 016°43'0 0.0
2015-Aug-26 20:32N 57°11' E 016°43'0 0.0
2015-Aug-26 19:33N 57°11' E 016°43'9 9.5
2015-Aug-26 18:33N 57°02' E 016°41'1211.9
2015-Aug-26 17:32N 56°50' E 016°33'88 5.5
2015-Aug-26 01:33N 55°35' E 015°13'1413.9
2015-Aug-26 00:33N 55°28' E 014°51'1413.8
2015-Aug-25 23:33N 55°19' E 014°32'1313.4
2015-Aug-25 22:34N 55°10' E 014°15'1414.1
2015-Aug-25 21:33N 55°11' E 013°50'1414.1
2015-Aug-25 20:33N 55°13' E 013°26'1413.9
2015-Aug-25 19:34N 55°14' E 013°01'1413.6
2015-Aug-25 18:33N 55°18' E 012°39'1313.2
2015-Aug-25 17:33N 55°31' E 012°45'10 9.9
2015-Aug-25 16:33N 55°39' E 012°56'3 2.6
2015-Aug-25 15:33N 55°38' E 013°01'0 0.0
2015-Aug-25 14:33N 55°38' E 013°01'0 0.0
2015-Aug-25 13:33N 55°38' E 013°01'0 0.0
2015-Aug-25 12:33N 55°38' E 013°01'0 0.0
2015-Aug-25 11:33N 55°38' E 013°01'0 0.0
2015-Aug-25 10:33N 55°38' E 013°01'0 0.0
2015-Aug-25 09:33N 55°38' E 013°01'0 0.0
2015-Aug-25 08:33N 55°38' E 013°01'3 3.5
2015-Aug-25 07:33N 55°38' E 012°55'8 8.0
2015-Aug-25 06:33N 55°32' E 012°45'1312.9
2015-Aug-25 05:33N 55°19' E 012°40'1413.5
2015-Aug-25 04:33N 55°15' E 013°03'1414.0
2015-Aug-25 03:33N 55°15' E 013°28'1414.3
2015-Aug-25 02:33N 55°14' E 013°53'1414.2
2015-Aug-25 01:33N 55°14' E 014°18'1414.0
2015-Aug-25 00:33N 55°24' E 014°33'1413.9
2015-Aug-24 23:33N 55°32' E 014°54'1413.9
2015-Aug-24 22:33N 55°39' E 015°15'1413.8
2015-Aug-24 21:33N 55°46' E 015°36'1414.0
2015-Aug-24 20:33N 55°53' E 015°58'1414.0
2015-Aug-24 19:33N 55°60' E 016°20'1414.0
2015-Aug-24 18:33N 56°07' E 016°41'1413.9
2015-Aug-24 17:33N 56°15' E 017°01'1413.8
2015-Aug-24 16:33N 56°23' E 017°22'1413.7
2015-Aug-24 15:33N 56°31' E 017°42'1413.8
2015-Aug-24 14:34N 56°39' E 018°02'1414.0
2015-Aug-24 13:34N 56°49' E 018°21'1414.0
2015-Aug-24 12:34N 56°59' E 018°38'4514.0
2015-Aug-24 09:21N 57°36' E 019°27'1214.0
2015-Aug-24 08:31N 57°45' E 019°40'1413.9
2015-Aug-24 07:32N 57°56' E 019°55'1414.0
2015-Aug-24 06:33N 58°07' E 020°10'1615.6
2015-Aug-24 05:31N 58°20' E 020°28'1313.9
2015-Aug-24 04:33N 58°31' E 020°43'1413.8
2015-Aug-24 03:32N 58°43' E 020°59'1414.0
2015-Aug-24 02:33N 58°54' E 021°14'2813.9
2015-Aug-24 00:32N 59°15' E 021°50'1414.1
2015-Aug-23 23:33N 59°24' E 022°11'1413.9
2015-Aug-23 22:33N 59°32' E 022°33'1514.0
2015-Aug-23 21:28N 59°35' E 023°02'1314.0
2015-Aug-23 20:34N 59°39' E 023°26'1413.9
2015-Aug-23 19:33N 59°43' E 023°53'1413.9
2015-Aug-23 18:33N 59°47' E 024°19'1413.7
2015-Aug-23 17:32N 59°50' E 024°46'2912.5
2015-Aug-23 15:13N 60°06' E 025°35'12 1.0
2015-Aug-23 03:20N 60°19' E 025°33'0 0.0
2015-Aug-23 02:32N 60°19' E 025°33'0 0.0
2015-Aug-23 01:32N 60°19' E 025°33'0 0.0
2015-Aug-23 00:32N 60°19' E 025°33'0 0.0
2015-Aug-22 21:16N 60°19' E 025°33'8 8.2
2015-Aug-22 20:14N 60°10' E 025°36'4913.2
2015-Aug-22 16:33N 59°43' E 024°16'1514.9
2015-Aug-22 15:33N 59°38' E 023°48'1514.9
2015-Aug-22 14:31N 59°33' E 023°19'1915.0
2015-Aug-22 13:14N 59°27' E 022°42'3713.9
2015-Aug-22 10:33N 59°31' E 021°29'3514.3
2015-Aug-22 08:05N 59°44' E 020°24'1114.4
2015-Aug-22 07:20N 59°45' E 020°03'1214.0
2015-Aug-22 06:28N 59°48' E 019°40'1914.8
2015-Aug-22 05:11N 60°02' E 019°15'914.7
2015-Aug-22 04:34N 60°09' E 019°04'78 1.9
2015-Aug-20 11:33N 59°32' E 021°19'1414.1
2015-Aug-20 10:33N 59°31' E 021°47'1414.0
2015-Aug-20 09:33N 59°33' E 022°15'2814.1
2015-Aug-20 07:33N 59°38' E 023°09'1414.2
2015-Aug-20 06:33N 59°41' E 023°36'1414.3
2015-Aug-20 05:33N 59°45' E 024°04'  
Track history (hours):
 
Tides and Currents Weather Stations Pressure Air Temp Water Temp Dewpoint Dewpoint Depression Visibility Wind Speed Wind Dir Waves Ship Positions

Suula

Last reported at 2015-Aug-30 00:09 UTC. Time now 2015-Sep-02 00:19 UTC.
Position N 59°33' E 021°12'.

Length 140 m; draft 6.5 m.

Type: Tanker. MMSI: 230956996.

Date/timePositionNaut miles runAvg speedWind from/ knotsBaromVisibWave heightAir tempDewpointWater temp
2015-Aug-30 00:09N 59°33' E 021°12'813.3
2015-Aug-29 23:33N 59°32' E 021°28'1313.2
2015-Aug-29 22:33N 59°31' E 021°54'4013.4
2015-Aug-29 19:33N 59°38' E 023°12'1313.4
2015-Aug-29 18:33N 59°41' E 023°38'1413.4
2015-Aug-29 17:32N 59°45' E 024°04'11 0.3
2015-Aug-28 02:33N 59°38' E 023°47'1414.0
2015-Aug-28 01:32N 59°34' E 023°21'18214.1
2015-Aug-27 12:33N 57°55' E 018°25'1414.3
2015-Aug-27 11:33N 57°48' E 018°02'1414.1
2015-Aug-27 10:33N 57°41' E 017°39'1413.9
2015-Aug-27 09:34N 57°34' E 017°16'1413.7
2015-Aug-27 08:34N 57°25' E 016°57'1414.0
2015-Aug-27 07:34N 57°13' E 016°44'2 2.1
2015-Aug-27 06:32N 57°11' E 016°42'0 0.0
2015-Aug-27 05:32N 57°11' E 016°42'0 0.0
2015-Aug-27 04:32N 57°11' E 016°42'0 0.0
2015-Aug-27 03:32N 57°11' E 016°42'0 0.0
2015-Aug-27 02:32N 57°11' E 016°42'0 0.0
2015-Aug-27 01:32N 57°11' E 016°42'0 0.0
2015-Aug-27 00:32N 57°11' E 016°43'0 0.0
2015-Aug-26 23:32N 57°11' E 016°43'0 0.0
2015-Aug-26 22:32N 57°11' E 016°43'0 0.0
2015-Aug-26 21:32N 57°11' E 016°43'0 0.0
2015-Aug-26 20:32N 57°11' E 016°43'0 0.0
2015-Aug-26 19:33N 57°11' E 016°43'9 9.5
2015-Aug-26 18:33N 57°02' E 016°41'1211.9
2015-Aug-26 17:32N 56°50' E 016°33'88 5.5
2015-Aug-26 01:33N 55°35' E 015°13'1413.9
2015-Aug-26 00:33N 55°28' E 014°51'1413.8
2015-Aug-25 23:33N 55°19' E 014°32'1313.4
2015-Aug-25 22:34N 55°10' E 014°15'1414.1
2015-Aug-25 21:33N 55°11' E 013°50'1414.1
2015-Aug-25 20:33N 55°13' E 013°26'1413.9
2015-Aug-25 19:34N 55°14' E 013°01'1413.6
2015-Aug-25 18:33N 55°18' E 012°39'1313.2
2015-Aug-25 17:33N 55°31' E 012°45'10 9.9
2015-Aug-25 16:33N 55°39' E 012°56'3 2.6
2015-Aug-25 15:33N 55°38' E 013°01'0 0.0
2015-Aug-25 14:33N 55°38' E 013°01'0 0.0
2015-Aug-25 13:33N 55°38' E 013°01'0 0.0
2015-Aug-25 12:33N 55°38' E 013°01'0 0.0
2015-Aug-25 11:33N 55°38' E 013°01'0 0.0
2015-Aug-25 10:33N 55°38' E 013°01'0 0.0
2015-Aug-25 09:33N 55°38' E 013°01'0 0.0
2015-Aug-25 08:33N 55°38' E 013°01'3 3.5
2015-Aug-25 07:33N 55°38' E 012°55'8 8.0
2015-Aug-25 06:33N 55°32' E 012°45'1312.9
2015-Aug-25 05:33N 55°19' E 012°40'1413.5
2015-Aug-25 04:33N 55°15' E 013°03'1414.0
2015-Aug-25 03:33N 55°15' E 013°28'1414.3
2015-Aug-25 02:33N 55°14' E 013°53'1414.2
2015-Aug-25 01:33N 55°14' E 014°18'1414.0
2015-Aug-25 00:33N 55°24' E 014°33'1413.9
2015-Aug-24 23:33N 55°32' E 014°54'1413.9
2015-Aug-24 22:33N 55°39' E 015°15'1413.8
2015-Aug-24 21:33N 55°46' E 015°36'1414.0
2015-Aug-24 20:33N 55°53' E 015°58'1414.0
2015-Aug-24 19:33N 55°60' E 016°20'1414.0
2015-Aug-24 18:33N 56°07' E 016°41'1413.9
2015-Aug-24 17:33N 56°15' E 017°01'1413.8
2015-Aug-24 16:33N 56°23' E 017°22'1413.7
2015-Aug-24 15:33N 56°31' E 017°42'1413.8
2015-Aug-24 14:34N 56°39' E 018°02'1414.0
2015-Aug-24 13:34N 56°49' E 018°21'1414.0
2015-Aug-24 12:34N 56°59' E 018°38'4514.0
2015-Aug-24 09:21N 57°36' E 019°27'1214.0
2015-Aug-24 08:31N 57°45' E 019°40'1413.9
2015-Aug-24 07:32N 57°56' E 019°55'1414.0
2015-Aug-24 06:33N 58°07' E 020°10'1615.6
2015-Aug-24 05:31N 58°20' E 020°28'1313.9
2015-Aug-24 04:33N 58°31' E 020°43'1413.8
2015-Aug-24 03:32N 58°43' E 020°59'1414.0
2015-Aug-24 02:33N 58°54' E 021°14'2813.9
2015-Aug-24 00:32N 59°15' E 021°50'1414.1
2015-Aug-23 23:33N 59°24' E 022°11'1413.9
2015-Aug-23 22:33N 59°32' E 022°33'1514.0
2015-Aug-23 21:28N 59°35' E 023°02'1314.0
2015-Aug-23 20:34N 59°39' E 023°26'1413.9
2015-Aug-23 19:33N 59°43' E 023°53'1413.9
2015-Aug-23 18:33N 59°47' E 024°19'1413.7
2015-Aug-23 17:32N 59°50' E 024°46'2912.5
2015-Aug-23 15:13N 60°06' E 025°35'12 1.0
2015-Aug-23 03:20N 60°19' E 025°33'0 0.0
2015-Aug-23 02:32N 60°19' E 025°33'0 0.0
2015-Aug-23 01:32N 60°19' E 025°33'0 0.0
2015-Aug-23 00:32N 60°19' E 025°33'0 0.0
2015-Aug-22 21:16N 60°19' E 025°33'8 8.2
2015-Aug-22 20:14N 60°10' E 025°36'4913.2
2015-Aug-22 16:33N 59°43' E 024°16'1514.9
2015-Aug-22 15:33N 59°38' E 023°48'1514.9
2015-Aug-22 14:31N 59°33' E 023°19'1915.0
2015-Aug-22 13:14N 59°27' E 022°42'3713.9
2015-Aug-22 10:33N 59°31' E 021°29'3514.3
2015-Aug-22 08:05N 59°44' E 020°24'1114.4
2015-Aug-22 07:20N 59°45' E 020°03'1214.0
2015-Aug-22 06:28N 59°48' E 019°40'1914.8
2015-Aug-22 05:11N 60°02' E 019°15'914.7
2015-Aug-22 04:34N 60°09' E 019°04'78 1.9
2015-Aug-20 11:33N 59°32' E 021°19'1414.1
2015-Aug-20 10:33N 59°31' E 021°47'1414.0
2015-Aug-20 09:33N 59°33' E 022°15'2814.1
2015-Aug-20 07:33N 59°38' E 023°09'1414.2
2015-Aug-20 06:33N 59°41' E 023°36'1414.3
2015-Aug-20 05:33N 59°45' E 024°04'  

Dump ship's entire track history